createdAt,value
2023-03-31T00:00:19.878Z,0.68
2023-03-31T00:01:18.287Z,0.67
2023-03-31T00:02:18.399Z,0.68
2023-03-31T00:03:18.514Z,0.68
2023-03-31T00:04:18.531Z,0.67
2023-03-31T00:05:18.550Z,0.68
2023-03-31T00:06:19.250Z,0.68
2023-03-31T00:07:18.542Z,0.66
2023-03-31T00:08:18.485Z,0.67
2023-03-31T00:09:18.574Z,0.68
2023-03-31T00:10:18.859Z,0.67
2023-03-31T00:11:18.549Z,0.66
2023-03-31T00:12:18.580Z,0.66
2023-03-31T00:13:18.586Z,0.67
2023-03-31T00:14:18.621Z,0.67
2023-03-31T00:15:18.665Z,0.66
2023-03-31T00:16:18.708Z,0.66
2023-03-31T00:17:18.703Z,0.66
2023-03-31T00:18:18.733Z,0.66
2023-03-31T00:19:18.771Z,0.66
2023-03-31T00:20:18.786Z,0.65
2023-03-31T00:21:18.818Z,0.66
2023-03-31T00:22:18.873Z,0.66
2023-03-31T00:23:18.895Z,0.66
2023-03-31T00:24:18.907Z,0.66
2023-03-31T00:25:18.954Z,0.66
2023-03-31T00:26:18.974Z,0.65
2023-03-31T00:27:19.394Z,0.65
2023-03-31T00:28:19.006Z,0.66
2023-03-31T00:29:19.042Z,0.64
2023-03-31T00:30:19.095Z,0.65
2023-03-31T00:31:19.229Z,0.66
2023-03-31T00:32:19.190Z,0.66
2023-03-31T00:33:19.252Z,0.65
2023-03-31T00:34:19.276Z,0.65
2023-03-31T00:35:19.297Z,0.65
2023-03-31T00:36:19.377Z,0.66
2023-03-31T00:37:19.391Z,0.65
2023-03-31T00:38:19.416Z,0.65
2023-03-31T00:39:19.479Z,0.65
2023-03-31T00:40:19.493Z,0.65
2023-03-31T00:41:19.549Z,0.65
2023-03-31T00:42:19.624Z,0.64
2023-03-31T00:43:19.613Z,0.65
2023-03-31T00:44:19.679Z,0.65
2023-03-31T00:45:19.724Z,0.64
2023-03-31T00:46:19.791Z,0.65
2023-03-31T00:47:19.824Z,0.63
2023-03-31T00:48:19.858Z,0.64
2023-03-31T00:49:19.913Z,0.64
2023-03-31T00:50:20.917Z,0.64
2023-03-31T00:51:20.021Z,0.64
2023-03-31T00:52:19.991Z,0.64
2023-03-31T00:53:20.001Z,0.64
2023-03-31T00:54:19.974Z,0.64
2023-03-31T00:55:20.122Z,0.64
2023-03-31T00:56:19.934Z,0.63
2023-03-31T00:57:19.954Z,0.63
2023-03-31T00:58:19.934Z,0.64
2023-03-31T00:59:19.897Z,0.64
2023-03-31T01:00:19.892Z,0.64
2023-03-31T01:01:19.921Z,0.64
2023-03-31T01:02:19.894Z,0.64
2023-03-31T01:03:20.004Z,0.62
2023-03-31T01:04:19.996Z,0.63
2023-03-31T01:05:20.040Z,0.63
2023-03-31T01:06:20.168Z,0.63
2023-03-31T01:07:20.164Z,0.63
2023-03-31T01:08:20.168Z,0.63
2023-03-31T01:09:20.203Z,0.62
2023-03-31T01:10:20.289Z,0.63
2023-03-31T01:11:20.240Z,0.63
2023-03-31T01:12:20.299Z,0.63
2023-03-31T01:13:20.320Z,0.62
2023-03-31T01:14:20.375Z,0.62
2023-03-31T01:15:20.418Z,0.62
2023-03-31T01:16:20.521Z,0.63
2023-03-31T01:17:20.624Z,0.62
2023-03-31T01:18:20.694Z,0.62
2023-03-31T01:19:20.669Z,0.62
2023-03-31T01:20:20.676Z,0.62
2023-03-31T01:21:22.365Z,0.62
2023-03-31T01:22:20.761Z,0.62
2023-03-31T01:23:20.844Z,0.62
2023-03-31T01:24:20.858Z,0.61
2023-03-31T01:25:20.986Z,0.62
2023-03-31T01:26:20.931Z,0.62
2023-03-31T01:27:21.094Z,0.61
2023-03-31T01:28:20.996Z,0.62
2023-03-31T01:29:21.008Z,0.61
2023-03-31T01:30:21.022Z,0.60
2023-03-31T01:31:22.906Z,0.61
2023-03-31T01:32:21.068Z,0.61
2023-03-31T01:33:21.897Z,0.61
2023-03-31T01:34:21.133Z,0.60
2023-03-31T01:35:21.206Z,0.61
2023-03-31T01:36:21.189Z,0.61
2023-03-31T01:37:21.303Z,0.61
2023-03-31T01:38:21.261Z,0.60
2023-03-31T01:39:21.280Z,0.61
2023-03-31T01:40:21.305Z,0.61
2023-03-31T01:41:21.352Z,0.61
2023-03-31T01:42:21.447Z,0.60
2023-03-31T01:43:21.446Z,0.60
2023-03-31T01:44:21.512Z,0.60
2023-03-31T01:45:21.575Z,0.61
2023-03-31T01:46:21.659Z,0.60
2023-03-31T01:47:21.666Z,0.61
2023-03-31T01:48:21.708Z,0.59
2023-03-31T01:49:21.759Z,0.60
2023-03-31T01:50:21.894Z,0.60
2023-03-31T01:51:21.849Z,0.60
2023-03-31T01:52:21.947Z,0.60
2023-03-31T01:53:21.937Z,0.59
2023-03-31T01:54:21.974Z,0.60
2023-03-31T01:55:22.072Z,0.60
2023-03-31T01:56:22.074Z,0.60
2023-03-31T01:57:22.207Z,0.60
2023-03-31T01:58:22.175Z,0.59
2023-03-31T01:59:22.128Z,0.59
2023-03-31T02:00:22.192Z,0.60
2023-03-31T02:01:22.238Z,0.60
2023-03-31T02:02:22.284Z,0.60
2023-03-31T02:03:22.506Z,0.60
2023-03-31T02:04:22.314Z,0.59
2023-03-31T02:05:22.341Z,0.59
2023-03-31T02:06:22.399Z,0.59
2023-03-31T02:07:22.436Z,0.60
2023-03-31T02:08:22.442Z,0.59
2023-03-31T02:09:22.482Z,0.59
2023-03-31T02:10:22.492Z,0.59
2023-03-31T02:11:22.534Z,0.59
2023-03-31T02:12:22.588Z,0.59
2023-03-31T02:13:22.613Z,0.58
2023-03-31T02:14:22.678Z,0.58
2023-03-31T02:15:22.737Z,0.59
2023-03-31T02:16:22.801Z,0.59
2023-03-31T02:17:22.853Z,0.58
2023-03-31T02:18:22.851Z,0.59
2023-03-31T02:19:22.955Z,0.58
2023-03-31T02:20:22.919Z,0.59
2023-03-31T02:21:22.946Z,0.58
2023-03-31T02:22:22.976Z,0.59
2023-03-31T02:23:23.046Z,0.59
2023-03-31T02:24:23.086Z,0.58
2023-03-31T02:25:23.069Z,0.58
2023-03-31T02:26:23.135Z,0.58
2023-03-31T02:27:23.141Z,0.58
2023-03-31T02:28:23.178Z,0.58
2023-03-31T02:29:23.244Z,0.58
2023-03-31T02:30:23.283Z,0.58
2023-03-31T02:31:23.367Z,0.58
2023-03-31T02:32:23.399Z,0.58
2023-03-31T02:33:23.376Z,0.57
2023-03-31T02:34:23.425Z,0.58
2023-03-31T02:35:23.504Z,0.57
2023-03-31T02:36:23.487Z,0.58
2023-03-31T02:37:23.528Z,0.58
2023-03-31T02:38:23.580Z,0.59
2023-03-31T02:39:23.630Z,0.58
2023-03-31T02:40:23.670Z,0.58
2023-03-31T02:41:23.717Z,0.57
2023-03-31T02:42:23.736Z,0.58
2023-03-31T02:43:23.770Z,0.58
2023-03-31T02:44:23.823Z,0.58
2023-03-31T02:45:23.869Z,0.57
2023-03-31T02:46:24.045Z,0.57
2023-03-31T02:47:24.030Z,0.57
2023-03-31T02:48:24.012Z,0.57
2023-03-31T02:49:24.057Z,0.57
2023-03-31T02:50:24.108Z,0.57
2023-03-31T02:51:24.150Z,0.57
2023-03-31T02:52:24.174Z,0.57
2023-03-31T02:53:24.271Z,0.57
2023-03-31T02:54:24.291Z,0.58
2023-03-31T02:55:24.323Z,0.56
2023-03-31T02:56:24.393Z,0.58
2023-03-31T02:57:24.448Z,0.57
2023-03-31T02:58:24.475Z,0.57
2023-03-31T02:59:24.595Z,0.57
2023-03-31T03:00:24.637Z,0.57
2023-03-31T03:01:24.669Z,0.58
2023-03-31T03:02:24.835Z,0.57
2023-03-31T03:03:25.455Z,0.57
2023-03-31T03:04:24.909Z,0.57
2023-03-31T03:05:24.943Z,0.57
2023-03-31T03:06:25.014Z,0.57
2023-03-31T03:07:25.072Z,0.57
2023-03-31T03:08:25.079Z,0.57
2023-03-31T03:09:25.147Z,0.57
2023-03-31T03:10:25.170Z,0.56
2023-03-31T03:11:25.257Z,0.57
2023-03-31T03:12:25.290Z,0.56
2023-03-31T03:13:25.305Z,0.56
2023-03-31T03:14:25.397Z,0.55
2023-03-31T03:15:25.425Z,0.55
2023-03-31T03:16:25.532Z,0.56
2023-03-31T03:17:25.528Z,0.55
2023-03-31T03:18:25.535Z,0.56
2023-03-31T03:19:25.582Z,0.57
2023-03-31T03:20:25.617Z,0.57
2023-03-31T03:21:25.695Z,0.57
2023-03-31T03:22:25.722Z,0.56
2023-03-31T03:23:25.748Z,0.56
2023-03-31T03:24:25.785Z,0.56
2023-03-31T03:25:25.834Z,0.56
2023-03-31T03:26:25.853Z,0.56
2023-03-31T03:27:25.908Z,0.56
2023-03-31T03:28:25.940Z,0.56
2023-03-31T03:29:25.980Z,0.56
2023-03-31T03:30:26.016Z,0.56
2023-03-31T03:31:26.316Z,0.56
2023-03-31T03:32:25.908Z,0.56
2023-03-31T03:33:25.891Z,0.56
2023-03-31T03:34:25.884Z,0.56
2023-03-31T03:35:25.876Z,0.56
2023-03-31T03:36:25.926Z,0.56
2023-03-31T03:37:25.836Z,0.56
2023-03-31T03:38:25.838Z,0.55
2023-03-31T03:39:25.860Z,0.56
2023-03-31T03:40:25.847Z,0.55
2023-03-31T03:41:25.862Z,0.55
2023-03-31T03:42:25.945Z,0.55
2023-03-31T03:43:26.887Z,0.55
2023-03-31T03:44:25.875Z,0.55
2023-03-31T03:45:25.858Z,0.55
2023-03-31T03:46:25.875Z,0.55
2023-03-31T03:47:25.822Z,0.55
2023-03-31T03:48:25.817Z,0.54
2023-03-31T03:49:25.812Z,0.54
2023-03-31T03:50:25.757Z,0.55
2023-03-31T03:51:27.422Z,0.54
2023-03-31T03:52:25.845Z,0.55
2023-03-31T03:53:25.889Z,0.55
2023-03-31T03:54:25.890Z,0.54
2023-03-31T03:55:25.957Z,0.55
2023-03-31T03:56:26.002Z,0.55
2023-03-31T03:57:26.101Z,0.55
2023-03-31T03:58:26.096Z,0.55
2023-03-31T03:59:26.152Z,0.54
2023-03-31T04:00:26.171Z,0.54
2023-03-31T04:01:26.180Z,0.55
2023-03-31T04:02:28.010Z,0.54
2023-03-31T04:03:26.307Z,0.55
2023-03-31T04:04:26.299Z,0.54
2023-03-31T04:05:26.380Z,0.54
2023-03-31T04:06:26.390Z,0.54
2023-03-31T04:07:26.454Z,0.55
2023-03-31T04:08:27.490Z,0.55
2023-03-31T04:09:26.503Z,0.55
2023-03-31T04:10:26.558Z,0.54
2023-03-31T04:11:26.593Z,0.54
2023-03-31T04:12:26.610Z,0.53
2023-03-31T04:13:28.420Z,0.54
2023-03-31T04:14:26.667Z,0.54
2023-03-31T04:15:26.718Z,0.53
2023-03-31T04:16:29.714Z,0.54
2023-03-31T04:17:26.759Z,0.55
2023-03-31T04:18:26.725Z,0.54
2023-03-31T04:19:26.746Z,0.54
2023-03-31T04:20:26.733Z,0.53
2023-03-31T04:21:26.675Z,0.54
2023-03-31T04:22:26.662Z,0.54
2023-03-31T04:23:26.702Z,0.54
2023-03-31T04:24:26.668Z,0.54
2023-03-31T04:25:26.620Z,0.54
2023-03-31T04:26:26.634Z,0.53
2023-03-31T04:27:26.594Z,0.54
2023-03-31T04:28:26.581Z,0.54
2023-03-31T04:29:26.572Z,0.54
2023-03-31T04:30:26.584Z,0.53
2023-03-31T04:31:26.650Z,0.53
2023-03-31T04:32:26.559Z,0.54
2023-03-31T04:33:26.511Z,0.55
2023-03-31T04:34:27.418Z,0.53
2023-03-31T04:35:26.516Z,0.54
2023-03-31T04:36:26.472Z,0.53
2023-03-31T04:37:26.465Z,0.53
2023-03-31T04:38:26.440Z,0.53
2023-03-31T04:39:26.469Z,0.53
2023-03-31T04:40:26.407Z,0.54
2023-03-31T04:41:26.390Z,0.54
2023-03-31T04:42:26.383Z,0.53
2023-03-31T04:43:26.364Z,0.53
2023-03-31T04:44:26.345Z,0.53
2023-03-31T04:45:26.420Z,0.54
2023-03-31T04:46:26.335Z,0.53
2023-03-31T04:47:26.339Z,0.52
2023-03-31T04:48:26.259Z,0.54
2023-03-31T04:49:26.245Z,0.53
2023-03-31T04:50:26.251Z,0.53
2023-03-31T04:51:26.205Z,0.53
2023-03-31T04:52:27.182Z,0.53
2023-03-31T04:53:26.156Z,0.53
2023-03-31T04:54:26.131Z,0.53
2023-03-31T04:55:26.126Z,0.53
2023-03-31T04:56:26.095Z,0.53
2023-03-31T04:57:26.490Z,0.53
2023-03-31T04:58:26.060Z,0.54
2023-03-31T04:59:26.064Z,0.53
2023-03-31T05:00:26.017Z,0.53
2023-03-31T05:01:26.027Z,0.52
2023-03-31T05:02:26.018Z,0.52
2023-03-31T05:03:26.080Z,0.52
2023-03-31T05:04:25.934Z,0.53
2023-03-31T05:05:25.981Z,0.53
2023-03-31T05:06:25.990Z,0.53
2023-03-31T05:07:26.031Z,0.53
2023-03-31T05:08:26.015Z,0.52
2023-03-31T05:09:26.931Z,0.53
2023-03-31T05:10:26.067Z,0.53
2023-03-31T05:11:26.089Z,0.52
2023-03-31T05:12:26.951Z,0.52
2023-03-31T05:13:26.926Z,0.52
2023-03-31T05:14:26.144Z,0.52
2023-03-31T05:15:26.149Z,0.51
2023-03-31T05:16:26.212Z,0.52
2023-03-31T05:17:26.230Z,0.52
2023-03-31T05:18:26.187Z,0.52
2023-03-31T05:19:26.200Z,0.51
2023-03-31T05:20:26.295Z,0.52
2023-03-31T05:21:26.273Z,0.52
2023-03-31T05:22:26.309Z,0.51
2023-03-31T05:23:26.343Z,0.53
2023-03-31T05:24:26.318Z,0.53
2023-03-31T05:25:26.303Z,0.53
2023-03-31T05:26:26.305Z,0.53
2023-03-31T05:27:26.280Z,0.53
2023-03-31T05:28:27.251Z,0.53
2023-03-31T05:29:26.228Z,0.53
2023-03-31T05:30:26.948Z,0.53
2023-03-31T05:31:26.231Z,0.54
2023-03-31T05:32:26.984Z,0.55
2023-03-31T05:33:26.161Z,0.56
2023-03-31T05:34:26.151Z,0.56
2023-03-31T05:35:26.134Z,0.55
2023-03-31T05:36:26.124Z,0.55
2023-03-31T05:37:27.966Z,0.55
2023-03-31T05:38:26.073Z,0.55
2023-03-31T05:39:26.059Z,0.56
2023-03-31T05:40:26.034Z,0.56
2023-03-31T05:41:26.031Z,0.56
2023-03-31T05:42:26.000Z,0.56
2023-03-31T05:43:26.986Z,0.55
2023-03-31T05:44:25.956Z,0.56
2023-03-31T05:45:25.946Z,0.56
2023-03-31T05:46:26.010Z,0.56
2023-03-31T05:47:26.442Z,0.57
2023-03-31T05:48:26.036Z,0.56
2023-03-31T05:49:25.858Z,0.56
2023-03-31T05:50:27.459Z,0.57
2023-03-31T05:51:25.832Z,0.56
2023-03-31T05:52:25.885Z,0.55
2023-03-31T05:53:25.788Z,0.56
2023-03-31T05:54:25.796Z,0.56
2023-03-31T05:55:25.809Z,0.55
2023-03-31T05:56:25.843Z,0.56
2023-03-31T05:57:26.024Z,0.56
2023-03-31T05:58:25.942Z,0.56
2023-03-31T05:59:25.931Z,0.56
2023-03-31T06:00:26.451Z,0.56
2023-03-31T06:01:25.920Z,0.57
2023-03-31T06:02:26.044Z,0.57
2023-03-31T06:03:25.912Z,0.57
2023-03-31T06:04:25.908Z,0.56
2023-03-31T06:05:25.823Z,0.56
2023-03-31T06:06:25.809Z,0.56
2023-03-31T06:07:25.791Z,0.55
2023-03-31T06:08:27.493Z,0.55
2023-03-31T06:09:25.748Z,0.55
2023-03-31T06:10:27.461Z,0.56
2023-03-31T06:11:25.832Z,0.56
2023-03-31T06:12:25.862Z,0.55
2023-03-31T06:13:29.880Z,0.55
2023-03-31T06:14:25.892Z,0.55
2023-03-31T06:15:26.481Z,0.56
2023-03-31T06:16:25.982Z,0.55
2023-03-31T06:17:25.853Z,0.55
2023-03-31T06:18:25.825Z,0.55
2023-03-31T06:19:25.808Z,0.55
2023-03-31T06:20:28.512Z,0.56
2023-03-31T06:21:26.464Z,0.56
2023-03-31T06:22:25.798Z,0.56
2023-03-31T06:23:25.763Z,0.56
2023-03-31T06:24:25.764Z,0.57
2023-03-31T06:25:25.775Z,0.59
2023-03-31T06:26:25.731Z,0.61
2023-03-31T06:27:25.708Z,0.62
2023-03-31T06:28:27.488Z,0.62
2023-03-31T06:29:26.478Z,0.61
2023-03-31T06:30:25.662Z,0.62
2023-03-31T06:31:27.564Z,0.62
2023-03-31T06:32:25.687Z,0.63
2023-03-31T06:33:25.615Z,0.62
2023-03-31T06:34:25.597Z,0.63
2023-03-31T06:35:25.598Z,0.62
2023-03-31T06:36:27.491Z,0.63
2023-03-31T06:37:25.559Z,0.63
2023-03-31T06:38:25.546Z,0.64
2023-03-31T06:39:28.121Z,0.63
2023-03-31T06:40:25.523Z,0.64
2023-03-31T06:41:25.511Z,0.64
2023-03-31T06:42:28.470Z,0.64
2023-03-31T06:43:25.508Z,0.64
2023-03-31T06:44:25.522Z,0.64
2023-03-31T06:45:25.462Z,0.64
2023-03-31T06:46:25.984Z,0.64
2023-03-31T06:47:25.509Z,0.64
2023-03-31T06:48:25.473Z,0.63
2023-03-31T06:49:25.417Z,0.62
2023-03-31T06:50:25.972Z,0.63
2023-03-31T06:51:25.388Z,0.63
2023-03-31T06:52:25.972Z,0.63
2023-03-31T06:53:25.349Z,0.62
2023-03-31T06:54:25.961Z,0.63
2023-03-31T06:55:25.320Z,0.62
2023-03-31T06:56:25.311Z,0.61
2023-03-31T06:57:25.358Z,0.61
2023-03-31T06:58:25.289Z,0.62
2023-03-31T06:59:25.284Z,0.62
2023-03-31T07:00:25.285Z,0.62
2023-03-31T07:01:25.319Z,0.62
2023-03-31T07:02:25.321Z,0.62
2023-03-31T07:03:25.563Z,0.62
2023-03-31T07:04:25.222Z,0.62
2023-03-31T07:05:25.198Z,0.62
2023-03-31T07:06:25.183Z,0.63
2023-03-31T07:07:25.156Z,0.62
2023-03-31T07:08:25.152Z,0.62
2023-03-31T07:09:25.131Z,0.62
2023-03-31T07:10:27.013Z,0.62
2023-03-31T07:11:25.085Z,0.61
2023-03-31T07:12:26.983Z,0.62
2023-03-31T07:13:25.118Z,0.62
2023-03-31T07:14:27.557Z,0.62
2023-03-31T07:15:25.104Z,0.63
2023-03-31T07:16:25.172Z,0.62
2023-03-31T07:17:26.997Z,0.62
2023-03-31T07:18:25.216Z,0.61
2023-03-31T07:19:25.276Z,0.62
2023-03-31T07:20:25.340Z,0.62
2023-03-31T07:21:25.987Z,0.61
2023-03-31T07:22:25.401Z,0.61
2023-03-31T07:23:25.434Z,0.61
2023-03-31T07:24:25.479Z,0.61
2023-03-31T07:25:25.519Z,0.60
2023-03-31T07:26:25.534Z,0.61
2023-03-31T07:27:26.479Z,0.62
2023-03-31T07:28:25.620Z,0.61
2023-03-31T07:29:25.636Z,0.60
2023-03-31T07:30:25.716Z,0.61
2023-03-31T07:31:25.790Z,0.62
2023-03-31T07:32:27.714Z,0.61
2023-03-31T07:33:25.750Z,0.62
2023-03-31T07:34:25.724Z,0.61
2023-03-31T07:35:25.744Z,0.61
2023-03-31T07:36:25.728Z,0.60
2023-03-31T07:37:25.677Z,0.61
2023-03-31T07:38:25.693Z,0.60
2023-03-31T07:39:25.648Z,0.60
2023-03-31T07:40:25.725Z,0.60
2023-03-31T07:41:25.621Z,0.61
2023-03-31T07:42:25.609Z,0.60
2023-03-31T07:43:25.588Z,0.61
2023-03-31T07:44:25.584Z,0.61
2023-03-31T07:45:25.551Z,0.60
2023-03-31T07:46:25.631Z,0.60
2023-03-31T07:47:25.516Z,0.61
2023-03-31T07:48:25.547Z,0.60
2023-03-31T07:49:25.988Z,0.60
2023-03-31T07:50:25.519Z,0.59
2023-03-31T07:51:25.451Z,0.60
2023-03-31T07:52:25.440Z,0.59
2023-03-31T07:53:25.407Z,0.60
2023-03-31T07:54:25.393Z,0.59
2023-03-31T07:55:25.360Z,0.60
2023-03-31T07:56:25.369Z,0.59
2023-03-31T07:57:25.385Z,0.59
2023-03-31T07:58:25.345Z,0.60
2023-03-31T07:59:25.314Z,0.59
2023-03-31T08:00:25.358Z,0.59
2023-03-31T08:01:25.259Z,0.59
2023-03-31T08:02:25.335Z,0.59
2023-03-31T08:03:25.235Z,0.60
2023-03-31T08:04:25.278Z,0.60
2023-03-31T08:05:25.198Z,0.59
2023-03-31T08:06:25.184Z,0.60
2023-03-31T08:07:25.985Z,0.60
2023-03-31T08:08:25.149Z,0.60
2023-03-31T08:09:25.148Z,0.60
2023-03-31T08:10:25.128Z,0.61
2023-03-31T08:11:25.982Z,0.61
2023-03-31T08:12:25.123Z,0.62
2023-03-31T08:13:27.988Z,0.65
2023-03-31T08:14:38.048Z,0.61
2023-03-31T08:15:25.037Z,0.61
2023-03-31T08:16:25.616Z,0.61
2023-03-31T08:17:25.000Z,0.60
2023-03-31T08:18:25.016Z,0.58
2023-03-31T08:19:24.968Z,0.53
2023-03-31T08:20:25.041Z,0.55
2023-03-31T08:21:25.912Z,0.55
2023-03-31T08:22:24.940Z,0.55
2023-03-31T08:23:24.950Z,0.54
2023-03-31T08:24:24.899Z,0.55
2023-03-31T08:25:24.951Z,0.56
2023-03-31T08:26:24.995Z,0.57
2023-03-31T08:27:25.054Z,0.59
2023-03-31T08:28:25.058Z,0.60
2023-03-31T08:29:25.104Z,0.59
2023-03-31T08:30:25.123Z,0.61
2023-03-31T08:31:27.327Z,0.59
2023-03-31T08:32:25.238Z,0.43
2023-03-31T08:33:25.210Z,0.44
2023-03-31T08:34:25.211Z,0.39
2023-03-31T08:35:25.195Z,0.44
2023-03-31T08:37:44.032Z,0.50
2023-03-31T08:38:44.029Z,0.50
2023-03-31T08:39:44.056Z,0.50
2023-03-31T08:40:44.719Z,0.50
2023-03-31T08:41:43.999Z,0.50
2023-03-31T08:42:43.983Z,0.50
2023-03-31T08:43:43.961Z,0.51
2023-03-31T08:44:43.946Z,0.52
2023-03-31T08:45:50.735Z,0.53
2023-03-31T08:46:43.960Z,0.53
2023-03-31T08:47:43.946Z,0.53
2023-03-31T08:48:43.856Z,0.54
2023-03-31T08:49:44.220Z,0.57
2023-03-31T08:50:43.806Z,0.61
2023-03-31T08:51:43.780Z,0.63
2023-03-31T08:52:43.775Z,0.64
2023-03-31T08:53:43.758Z,0.67
2023-03-31T08:54:43.712Z,0.70
2023-03-31T08:55:46.253Z,0.72
2023-03-31T08:56:43.921Z,0.78
2023-03-31T08:57:45.532Z,0.78
2023-03-31T08:58:44.846Z,0.78
2023-03-31T08:59:45.730Z,0.79
2023-03-31T09:00:43.784Z,0.81
2023-03-31T09:01:54.529Z,0.86
2023-03-31T09:02:46.808Z,0.79
2023-03-31T09:03:43.804Z,0.81
2023-03-31T09:04:43.669Z,0.86
2023-03-31T09:05:52.983Z,0.94
2023-03-31T09:06:48.641Z,0.79
2023-03-31T09:07:43.568Z,0.79
2023-03-31T09:08:44.234Z,0.83
2023-03-31T09:09:43.663Z,0.79
2023-03-31T09:10:45.244Z,0.84
2023-03-31T09:11:43.608Z,0.79
2023-03-31T09:12:44.224Z,0.85
2023-03-31T09:13:43.570Z,0.95
2023-03-31T09:14:43.502Z,1.12
2023-03-31T09:15:43.464Z,1.35
2023-03-31T09:16:43.496Z,1.56
2023-03-31T09:17:43.426Z,1.55
2023-03-31T09:18:43.393Z,1.56
2023-03-31T09:19:43.356Z,1.54
2023-03-31T09:20:43.304Z,1.60
2023-03-31T09:21:44.226Z,1.56
2023-03-31T09:22:45.266Z,1.57
2023-03-31T09:23:43.238Z,1.57
2023-03-31T09:24:44.215Z,1.57
2023-03-31T09:25:43.333Z,1.58
2023-03-31T09:26:43.159Z,1.58
2023-03-31T09:27:43.134Z,1.63
2023-03-31T09:28:43.101Z,1.65
2023-03-31T09:29:43.091Z,1.64
2023-03-31T09:30:43.048Z,1.59
2023-03-31T09:31:43.064Z,1.62
2023-03-31T09:32:43.064Z,1.61
2023-03-31T09:33:42.984Z,1.61
2023-03-31T09:34:42.941Z,1.62
2023-03-31T09:35:45.153Z,1.56
2023-03-31T09:36:42.891Z,1.63
2023-03-31T09:37:42.858Z,1.59
2023-03-31T09:38:42.821Z,1.58
2023-03-31T09:39:43.775Z,1.58
2023-03-31T09:40:42.829Z,1.55
2023-03-31T09:41:42.761Z,1.57
2023-03-31T09:42:42.725Z,1.54
2023-03-31T09:43:42.699Z,1.54
2023-03-31T09:44:42.672Z,1.54
2023-03-31T09:45:42.694Z,1.54
2023-03-31T09:46:42.679Z,1.53
2023-03-31T09:47:42.685Z,1.50
2023-03-31T09:48:42.621Z,1.52
2023-03-31T09:49:42.566Z,1.50
2023-03-31T09:50:43.157Z,1.50
2023-03-31T09:51:42.530Z,1.50
2023-03-31T09:52:42.517Z,1.48
2023-03-31T09:53:42.508Z,1.50
2023-03-31T09:54:42.465Z,1.50
2023-03-31T09:55:42.442Z,1.46
2023-03-31T09:56:43.339Z,1.44
2023-03-31T09:57:42.387Z,1.44
2023-03-31T09:58:42.376Z,1.45
2023-03-31T09:59:42.349Z,1.41
2023-03-31T10:00:42.349Z,1.42
2023-03-31T10:01:42.383Z,1.41
2023-03-31T10:02:42.306Z,1.41
2023-03-31T10:03:42.312Z,1.41
2023-03-31T10:04:42.307Z,1.41
2023-03-31T10:05:42.281Z,1.41
2023-03-31T10:06:42.288Z,1.40
2023-03-31T10:07:42.228Z,1.40
2023-03-31T10:08:43.749Z,1.39
2023-03-31T10:09:42.294Z,1.38
2023-03-31T10:10:42.228Z,1.39
2023-03-31T10:11:42.128Z,1.38
2023-03-31T10:12:42.105Z,1.37
2023-03-31T10:13:42.091Z,1.35
2023-03-31T10:14:42.184Z,1.36
2023-03-31T10:15:42.806Z,1.35
2023-03-31T10:16:42.033Z,1.40
2023-03-31T10:17:53.871Z,1.48
2023-03-31T10:18:42.986Z,1.49
2023-03-31T10:19:41.966Z,1.49
2023-03-31T10:20:42.810Z,1.68
2023-03-31T10:21:41.938Z,2.17
2023-03-31T10:22:41.912Z,3.46
2023-03-31T10:23:41.899Z,5.86
2023-03-31T10:24:41.866Z,6.63
2023-03-31T10:25:41.842Z,7.14
2023-03-31T10:26:41.817Z,7.39
2023-03-31T10:27:41.794Z,7.41
2023-03-31T10:28:41.771Z,7.60
2023-03-31T10:29:41.750Z,7.56
2023-03-31T10:30:41.732Z,7.29
2023-03-31T10:31:41.716Z,7.00
2023-03-31T10:32:41.763Z,7.48
2023-03-31T10:33:41.673Z,7.42
2023-03-31T10:34:41.619Z,7.04
2023-03-31T10:35:41.617Z,7.21
2023-03-31T10:36:41.547Z,6.73
2023-03-31T10:37:41.527Z,6.53
2023-03-31T10:38:41.503Z,6.33
2023-03-31T10:39:41.465Z,6.08
2023-03-31T10:40:41.518Z,5.98
2023-03-31T10:41:41.409Z,6.13
2023-03-31T10:42:41.380Z,5.94
2023-03-31T10:43:41.345Z,5.87
2023-03-31T10:44:41.331Z,5.87
2023-03-31T10:45:41.305Z,6.00
2023-03-31T10:46:41.341Z,5.60
2023-03-31T10:47:41.305Z,5.84
2023-03-31T10:48:41.755Z,5.86
2023-03-31T10:49:41.193Z,5.92
2023-03-31T10:50:41.164Z,6.31
2023-03-31T10:51:41.138Z,6.01
2023-03-31T10:52:41.092Z,6.41
2023-03-31T10:53:41.070Z,6.25
2023-03-31T10:54:41.027Z,6.43
2023-03-31T10:55:41.026Z,6.65
2023-03-31T10:56:40.956Z,6.53
2023-03-31T10:57:40.960Z,7.01
2023-03-31T10:58:40.897Z,6.97
2023-03-31T10:59:40.915Z,7.26
2023-03-31T11:00:40.856Z,7.53
2023-03-31T11:01:40.881Z,7.80
2023-03-31T11:02:40.856Z,7.70
2023-03-31T11:03:40.847Z,6.87
2023-03-31T11:04:40.744Z,6.49
2023-03-31T11:05:40.705Z,6.49
2023-03-31T11:06:40.666Z,5.92
2023-03-31T11:07:40.655Z,5.65
2023-03-31T11:08:40.605Z,5.32
2023-03-31T11:09:40.604Z,5.49
2023-03-31T11:10:40.681Z,5.31
2023-03-31T11:11:40.541Z,5.16
2023-03-31T11:12:40.514Z,4.84
2023-03-31T11:13:40.521Z,4.81
2023-03-31T11:14:40.527Z,4.64
2023-03-31T11:15:40.570Z,4.64
2023-03-31T11:16:40.679Z,4.51
2023-03-31T11:17:40.575Z,4.49
2023-03-31T11:18:40.542Z,4.33
2023-03-31T11:19:40.596Z,4.30
2023-03-31T11:20:40.552Z,4.18
2023-03-31T11:21:40.569Z,4.06
2023-03-31T11:22:40.573Z,4.27
2023-03-31T11:23:40.587Z,4.26
2023-03-31T11:24:40.611Z,3.88
2023-03-31T11:25:40.607Z,3.98
2023-03-31T11:26:40.614Z,3.76
2023-03-31T11:27:40.640Z,3.68
2023-03-31T11:28:40.630Z,3.67
2023-03-31T11:29:40.633Z,3.70
2023-03-31T11:30:40.652Z,3.57
2023-03-31T11:31:40.684Z,3.67
2023-03-31T11:32:40.675Z,3.51
2023-03-31T11:33:40.669Z,3.64
2023-03-31T11:34:40.692Z,3.45
2023-03-31T11:35:40.750Z,3.44
2023-03-31T11:36:40.736Z,3.45
2023-03-31T11:37:40.746Z,3.50
2023-03-31T11:38:40.778Z,3.47
2023-03-31T11:39:40.780Z,3.26
2023-03-31T11:40:40.813Z,3.35
2023-03-31T11:41:40.810Z,3.33
2023-03-31T11:42:40.832Z,3.21
2023-03-31T11:43:40.862Z,3.19
2023-03-31T11:44:40.859Z,3.22
2023-03-31T11:45:40.926Z,3.12
2023-03-31T11:46:40.991Z,3.07
2023-03-31T11:47:40.973Z,2.98
2023-03-31T11:48:40.935Z,2.99
2023-03-31T11:49:40.950Z,3.16
2023-03-31T11:50:40.971Z,3.05
2023-03-31T11:51:40.984Z,3.09
2023-03-31T11:52:41.014Z,3.09
2023-03-31T11:53:41.018Z,3.13
2023-03-31T11:54:41.054Z,3.02
2023-03-31T11:55:41.071Z,2.94
2023-03-31T11:56:41.320Z,2.91
2023-03-31T11:57:41.091Z,2.87
2023-03-31T11:58:41.125Z,2.90
2023-03-31T11:59:41.137Z,2.98
2023-03-31T12:00:41.134Z,2.76
2023-03-31T12:01:41.151Z,2.87
2023-03-31T12:02:41.172Z,2.84
2023-03-31T12:03:41.189Z,2.79
2023-03-31T12:04:41.206Z,2.79
2023-03-31T12:05:41.250Z,2.68
2023-03-31T12:06:41.249Z,2.68
2023-03-31T12:07:41.276Z,2.67
2023-03-31T12:08:41.281Z,2.66
2023-03-31T12:09:41.297Z,2.76
2023-03-31T12:10:41.335Z,2.73
2023-03-31T12:11:41.352Z,2.72
2023-03-31T12:12:41.381Z,2.63
2023-03-31T12:13:41.398Z,2.69
2023-03-31T12:14:41.406Z,2.59
2023-03-31T12:15:41.494Z,2.55
2023-03-31T12:16:41.499Z,2.65
2023-03-31T12:17:41.508Z,2.45
2023-03-31T12:18:41.480Z,2.54
2023-03-31T12:19:41.486Z,2.50
2023-03-31T12:20:41.509Z,2.51
2023-03-31T12:21:41.540Z,2.54
2023-03-31T12:22:41.551Z,2.40
2023-03-31T12:23:41.585Z,2.51
2023-03-31T12:24:41.614Z,2.49
2023-03-31T12:25:41.614Z,2.46
2023-03-31T12:26:41.649Z,2.44
2023-03-31T12:27:41.711Z,2.38
2023-03-31T12:28:41.701Z,2.43
2023-03-31T12:29:41.721Z,2.40
2023-03-31T12:30:41.743Z,2.36
2023-03-31T12:31:41.827Z,2.39
2023-03-31T12:32:41.793Z,2.39
2023-03-31T12:33:41.808Z,2.38
2023-03-31T12:34:41.821Z,2.33
2023-03-31T12:35:41.914Z,2.34
2023-03-31T12:36:41.875Z,2.30
2023-03-31T12:37:42.790Z,2.32
2023-03-31T12:38:41.930Z,2.29
2023-03-31T12:39:41.955Z,2.31
2023-03-31T12:40:41.980Z,2.26
2023-03-31T12:41:42.072Z,2.28
2023-03-31T12:42:42.037Z,2.26
2023-03-31T12:43:42.073Z,2.22
2023-03-31T12:44:42.094Z,2.24
2023-03-31T12:45:42.122Z,2.22
2023-03-31T12:46:42.160Z,2.21
2023-03-31T12:47:42.262Z,2.21
2023-03-31T12:48:42.210Z,2.21
2023-03-31T12:49:42.243Z,2.19
2023-03-31T12:50:42.283Z,2.16
2023-03-31T12:51:42.302Z,2.15
2023-03-31T12:52:42.329Z,2.13
2023-03-31T12:53:42.351Z,2.12
2023-03-31T12:54:42.383Z,2.12
2023-03-31T12:55:42.402Z,2.10
2023-03-31T12:56:42.421Z,2.10
2023-03-31T12:57:42.445Z,2.09
2023-03-31T12:58:42.469Z,2.07
2023-03-31T12:59:42.507Z,2.06
2023-03-31T13:00:42.554Z,2.08
2023-03-31T13:01:42.597Z,2.04
2023-03-31T13:02:42.674Z,2.05
2023-03-31T13:03:42.598Z,1.98
2023-03-31T13:04:42.634Z,2.03
2023-03-31T13:05:42.659Z,2.02
2023-03-31T13:06:42.675Z,2.00
2023-03-31T13:07:42.715Z,1.96
2023-03-31T13:08:42.727Z,1.96
2023-03-31T13:09:42.766Z,1.94
2023-03-31T13:10:42.798Z,1.93
2023-03-31T13:11:42.800Z,1.94
2023-03-31T13:12:42.828Z,1.91
2023-03-31T13:13:54.236Z,1.93
2023-03-31T13:14:43.829Z,1.93
2023-03-31T13:15:42.864Z,1.92
2023-03-31T13:16:42.812Z,1.92
2023-03-31T13:17:42.749Z,1.91
2023-03-31T13:18:42.718Z,1.87
2023-03-31T13:19:42.700Z,1.88